Time;durP1;ratioP1;P1;durP2;ratioP2;P2;SDS_P1;SDS_P2;PMS_P1;PMS_P2;Temp;Humidity;BMP_temperature;BMP_pressure;BME280_temperature;BME280_humidity;BME280_pressure;Samples;Min_cycle;Max_cycle;Signal;HPM_P1;HPM_P2
2023/05/10 00:00:29;;;;;;;;;;;;;;;8.95;37.82;100758.66;4985485;28;20439;-74
2023/05/10 00:02:55;;;;;;;;;;;;;;;8.92;37.25;100764.59;4987539;28;19929;-74
2023/05/10 00:05:21;;;;;;;;;;;;;;;8.92;36.91;100757.25;4988589;28;19926;-74
2023/05/10 00:07:47;;;;;;;;;;;;;;;8.95;36.75;100761.38;4987717;28;19948;-75
2023/05/10 00:10:13;;;;;;;;;;;;;;;8.92;36.60;100759.97;4988329;28;19926;-75
2023/05/10 00:12:39;;;;;;;;;;;;;;;8.97;36.42;100755.69;4986876;28;20324;-74
2023/05/10 00:15:07;;;;;;;;;;;;;;;8.99;36.57;100757.13;4988768;28;20303;-74
2023/05/10 00:17:33;;;;;;;;;;;;;;;8.97;36.64;100755.69;4985792;28;19926;-74
2023/05/10 00:20:00;;;;;;;;;;;;;;;8.97;37.08;100763.88;4985692;28;20334;-74
2023/05/10 00:22:26;;;;;;;;;;;;;;;8.92;37.50;100757.25;5004028;28;19936;-75
2023/05/10 00:24:52;;;;;;;;;;;;;;;8.91;37.42;100755.59;4989609;28;19925;-75
2023/05/10 00:27:17;;;;;;;;;;;;;;;8.91;37.59;100760.22;4985088;28;19925;-75
2023/05/10 00:29:43;;;;;;;;;;;;;;;8.90;37.65;100761.28;4968928;28;20028;-75
2023/05/10 00:32:11;;;;;;;;;;;;;;;8.91;37.81;100763.78;4989180;28;19932;-74
2023/05/10 00:34:37;;;;;;;;;;;;;;;8.90;37.89;100764.00;4988919;28;20027;-74
2023/05/10 00:37:02;;;;;;;;;;;;;;;8.90;37.74;100761.28;4989786;28;20460;-74
2023/05/10 00:39:28;;;;;;;;;;;;;;;8.93;37.68;100763.53;4983604;28;20035;-74
2023/05/10 00:41:54;;;;;;;;;;;;;;;8.96;37.50;100764.94;4987801;28;19956;-73
2023/05/10 00:44:20;;;;;;;;;;;;;;;8.98;37.40;100762.81;4986929;28;19934;-74
2023/05/10 00:46:46;;;;;;;;;;;;;;;8.98;37.54;100766.38;4987752;28;19982;-73
2023/05/10 00:49:14;;;;;;;;;;;;;;;9.00;37.45;100766.13;4970610;28;19926;-73
2023/05/10 00:51:42;;;;;;;;;;;;;;;9.00;37.27;100763.38;5006695;28;19925;-73
2023/05/10 00:54:09;;;;;;;;;;;;;;;8.99;37.35;100762.56;4987399;28;20420;-73
2023/05/10 00:56:35;;;;;;;;;;;;;;;8.99;37.44;100765.31;4970967;28;19954;-74
2023/05/10 00:59:01;;;;;;;;;;;;;;;8.95;37.67;100764.09;4972756;28;19925;-73
2023/05/10 01:01:28;;;;;;;;;;;;;;;8.91;38.15;100761.06;4989647;28;19926;-73
2023/05/10 01:03:54;;;;;;;;;;;;;;;8.89;39.07;100759.63;4987929;28;19926;-73
2023/05/10 01:06:21;;;;;;;;;;;;;;;8.85;39.25;100762.00;4987028;28;19929;-73
2023/05/10 01:08:47;;;;;;;;;;;;;;;8.87;40.02;100750.84;4985756;28;19926;-73
2023/05/10 01:11:13;;;;;;;;;;;;;;;8.90;40.06;100755.81;4986525;28;19941;-74
2023/05/10 01:13:40;;;;;;;;;;;;;;;8.91;40.01;100749.31;4989499;28;20317;-74
2023/05/10 01:16:06;;;;;;;;;;;;;;;8.89;39.59;100757.72;4971849;28;19926;-73
2023/05/10 01:18:33;;;;;;;;;;;;;;;8.89;39.51;100757.72;4990128;28;20387;-75
2023/05/10 01:21:14;;;;;;;;;;;;;;;8.89;39.57;100757.72;4990644;28;19965;-74
2023/05/10 01:23:59;;;;;;;;;;;;;;;8.88;40.11;100760.69;4988877;28;19925;-75
2023/05/10 01:26:50;;;;;;;;;;;;;;;8.85;40.48;100764.72;5002703;28;19968;-74
2023/05/10 01:29:35;;;;;;;;;;;;;;;8.85;40.78;100756.53;4986833;28;20028;-75
2023/05/10 01:32:19;;;;;;;;;;;;;;;8.85;40.71;100753.81;4987920;28;19926;-75
2023/05/10 01:34:48;;;;;;;;;;;;;;;8.85;40.67;100753.00;4989728;28;19932;-74
2023/05/10 01:37:17;;;;;;;;;;;;;;;8.88;40.73;100756.06;4990167;28;19926;-75
2023/05/10 01:39:45;;;;;;;;;;;;;;;8.89;40.68;100752.25;4986636;28;20357;-74
2023/05/10 01:42:16;;;;;;;;;;;;;;;8.89;40.54;100757.72;4990158;28;19980;-75
2023/05/10 01:44:46;;;;;;;;;;;;;;;8.91;40.38;100752.03;4986642;28;19926;-74
2023/05/10 01:47:14;;;;;;;;;;;;;;;8.89;40.48;100749.53;4987628;28;20016;-74
2023/05/10 01:49:42;;;;;;;;;;;;;;;8.89;41.02;100752.25;4988357;28;19969;-74
2023/05/10 01:52:12;;;;;;;;;;;;;;;8.88;41.01;100747.06;4989964;28;19926;-75
2023/05/10 01:54:38;;;;;;;;;;;;;;;8.87;40.88;100751.66;4989408;28;19932;-75
2023/05/10 01:57:07;;;;;;;;;;;;;;;8.84;40.70;100749.44;4985900;28;19961;-75
2023/05/10 01:59:40;;;;;;;;;;;;;;;8.85;40.65;100748.34;4987449;28;20024;-74
2023/05/10 02:02:06;;;;;;;;;;;;;;;8.85;41.20;100747.53;4987072;28;20344;-74
2023/05/10 02:04:35;;;;;;;;;;;;;;;8.84;40.99;100743.16;4985630;28;19926;-75
2023/05/10 02:07:01;;;;;;;;;;;;;;;8.85;40.06;100742.09;5003436;28;19933;-74
2023/05/10 02:09:30;;;;;;;;;;;;;;;8.87;39.47;100742.69;4987528;28;19926;-74
2023/05/10 02:11:58;;;;;;;;;;;;;;;8.88;39.54;100747.88;5003043;28;19926;-74
2023/05/10 02:14:26;;;;;;;;;;;;;;;8.88;39.00;100738.88;4986091;28;19926;-73
2023/05/10 02:16:53;;;;;;;;;;;;;;;8.88;38.49;100741.59;4986033;28;20340;-73
2023/05/10 02:19:19;;;;;;;;;;;;;;;8.90;37.99;100748.50;4984592;28;19949;-73
2023/05/10 02:22:08;;;;;;;;;;;;;;;8.92;37.48;100740.88;4985664;28;19929;-74
2023/05/10 02:24:36;;;;;;;;;;;;;;;8.93;37.38;100742.53;4986972;28;19932;-74
2023/05/10 02:27:02;;;;;;;;;;;;;;;8.96;37.42;100740.41;4986113;28;20033;-74
2023/05/10 02:29:28;;;;;;;;;;;;;;;8.97;37.65;100742.06;4988438;28;19925;-74
2023/05/10 02:31:55;;;;;;;;;;;;;;;8.96;37.58;100740.41;5002918;28;19929;-75
2023/05/10 02:34:23;;;;;;;;;;;;;;;8.96;37.69;100743.13;4988750;28;20367;-75
2023/05/10 02:36:49;;;;;;;;;;;;;;;8.94;37.99;100735.19;4983736;28;19929;-75
2023/05/10 02:39:16;;;;;;;;;;;;;;;8.94;37.94;100730.56;4984533;28;20044;-75
2023/05/10 02:41:45;;;;;;;;;;;;;;;8.96;37.91;100727.56;4968397;28;20028;-73
2023/05/10 02:44:13;;;;;;;;;;;;;;;8.99;37.44;100735.31;4983825;28;19980;-74
2023/05/10 02:46:39;;;;;;;;;;;;;;;9.01;37.36;100735.88;4984434;28;20109;-73
2023/05/10 02:49:05;;;;;;;;;;;;;;;9.06;37.42;100732.44;4985930;28;20035;-74
2023/05/10 02:51:33;;;;;;;;;;;;;;;9.07;37.25;100732.19;4986192;28;19925;-74
2023/05/10 02:54:03;;;;;;;;;;;;;;;9.08;37.14;100731.09;4985269;28;19948;-74
2023/05/10 02:56:32;;;;;;;;;;;;;;;9.10;37.03;100732.75;4970733;28;19948;-73
2023/05/10 02:59:00;;;;;;;;;;;;;;;9.11;36.82;100726.22;4985697;28;20032;-74
2023/05/10 03:01:26;;;;;;;;;;;;;;;9.15;36.58;100727.44;4986671;28;20474;-75
2023/05/10 03:03:51;;;;;;;;;;;;;;;9.20;36.42;100730.25;4988254;28;20028;-74
2023/05/10 03:06:17;;;;;;;;;;;;;;;9.25;36.15;100734.97;4951332;28;20377;-74
2023/05/10 03:08:47;;;;;;;;;;;;;;;9.28;36.08;100729.84;4983943;28;20040;-75
2023/05/10 03:11:21;;;;;;;;;;;;;;;9.27;36.05;100730.91;4983437;28;19925;-75
2023/05/10 03:13:54;;;;;;;;;;;;;;;9.25;35.88;100724.06;4985603;28;20651;-75
2023/05/10 03:16:29;;;;;;;;;;;;;;;9.28;35.78;100726.31;4987810;28;19925;-74
2023/05/10 03:18:56;;;;;;;;;;;;;;;9.30;35.30;100722.25;4987080;28;20404;-74
2023/05/10 03:21:23;;;;;;;;;;;;;;;9.31;35.52;100720.34;4985650;28;19925;-74
2023/05/10 03:23:51;;;;;;;;;;;;;;;9.35;35.42;100724.25;4985399;28;20032;-74
2023/05/10 03:26:20;;;;;;;;;;;;;;;9.38;35.38;100720.19;4981273;28;20024;-74
2023/05/10 03:28:48;;;;;;;;;;;;;;;9.41;35.19;100722.44;4984741;28;19992;-73
2023/05/10 03:31:14;;;;;;;;;;;;;;;9.43;35.19;100725.75;4986279;28;19976;-74
2023/05/10 03:33:47;;;;;;;;;;;;;;;9.47;35.27;100724.22;4986689;28;20037;-74
2023/05/10 03:36:13;;;;;;;;;;;;;;;9.42;35.27;100711.28;4989142;28;20319;-74
2023/05/10 03:38:39;;;;;;;;;;;;;;;9.42;35.02;100714.03;4985624;28;19926;-74
2023/05/10 03:41:05;;;;;;;;;;;;;;;9.56;35.09;100721.91;4970039;28;20243;-74
2023/05/10 03:43:32;;;;;;;;;;;;;;;9.64;35.04;100718.75;4983801;28;20455;-74
2023/05/10 03:45:58;;;;;;;;;;;;;;;9.68;35.06;100730.88;4984727;28;19926;-74
2023/05/10 03:48:24;;;;;;;;;;;;;;;9.75;34.94;100720.59;4984987;28;20415;-73
2023/05/10 03:50:51;;;;;;;;;;;;;;;9.82;34.81;100722.34;4983051;28;19969;-73
2023/05/10 03:53:17;;;;;;;;;;;;;;;9.75;34.67;100714.31;4982812;28;19925;-74
2023/05/10 03:55:43;;;;;;;;;;;;;;;9.87;34.64;100723.25;4985000;28;19976;-73
2023/05/10 03:58:10;;;;;;;;;;;;;;;9.90;34.64;100722.75;4988657;28;19925;-74
2023/05/10 04:00:36;;;;;;;;;;;;;;;9.96;34.67;100711.94;4989364;28;19977;-74
2023/05/10 04:03:03;;;;;;;;;;;;;;;10.01;34.31;100720.19;4988883;28;19926;-74
2023/05/10 04:05:29;;;;;;;;;;;;;;;10.03;34.30;100716.16;4991505;28;20343;-74
2023/05/10 04:07:56;;;;;;;;;;;;;;;10.08;34.32;100715.41;4987669;28;19932;-74
2023/05/10 04:10:22;;;;;;;;;;;;;;;10.10;34.15;100715.97;4988602;28;19927;-73
2023/05/10 04:12:48;;;;;;;;;;;;;;;10.15;33.97;100712.50;4989391;28;20351;-74
2023/05/10 04:15:14;;;;;;;;;;;;;;;10.24;33.95;100711.00;4989330;28;20368;-74
2023/05/10 04:17:40;;;;;;;;;;;;;;;10.32;33.92;100710.59;4990485;28;19926;-74
2023/05/10 04:20:06;;;;;;;;;;;;;;;10.39;33.93;100713.16;4990038;28;19926;-74
2023/05/10 04:22:32;;;;;;;;;;;;;;;10.40;33.87;100713.94;4989783;28;19926;-74
2023/05/10 04:24:59;;;;;;;;;;;;;;;10.43;33.77;100708.84;4987090;28;20585;-73
2023/05/10 04:27:25;;;;;;;;;;;;;;;10.55;33.87;100713.38;4986934;28;19940;-74
2023/05/10 04:29:51;;;;;;;;;;;;;;;10.62;33.54;100712.13;4989949;28;20104;-73
2023/05/10 04:32:17;;;;;;;;;;;;;;;10.65;33.32;100708.03;4986832;28;20393;-74
2023/05/10 04:34:43;;;;;;;;;;;;;;;10.76;33.43;100712.56;4990123;28;20417;-73
2023/05/10 04:37:09;;;;;;;;;;;;;;;10.88;33.37;100709.69;4954766;28;19957;-74
2023/05/10 04:39:35;;;;;;;;;;;;;;;10.98;33.09;100709.00;4986006;28;19984;-73
2023/05/10 04:42:02;;;;;;;;;;;;;;;10.97;32.93;100704.59;5006463;28;19926;-72
2023/05/10 04:44:28;;;;;;;;;;;;;;;10.96;32.85;100702.16;4988859;28;19926;-73
2023/05/10 04:46:54;;;;;;;;;;;;;;;11.02;32.90;100698.38;4989387;28;19950;-73
2023/05/10 04:49:20;;;;;;;;;;;;;;;11.09;32.46;100701.75;4986913;28;19957;-73
2023/05/10 04:51:46;;;;;;;;;;;;;;;11.09;32.42;100699.03;4987219;28;19926;-73
2023/05/10 04:54:12;;;;;;;;;;;;;;;11.11;32.29;100706.97;4988227;28;19926;-72
2023/05/10 04:56:38;;;;;;;;;;;;;;;11.16;32.18;100698.78;4988870;28;19932;-72
2023/05/10 04:59:05;;;;;;;;;;;;;;;11.29;32.29;100703.88;4986578;28;19925;-72
2023/05/10 05:01:31;;;;;;;;;;;;;;;11.37;32.30;100697.09;4986166;28;19936;-72
2023/05/10 05:03:57;;;;;;;;;;;;;;;11.49;31.85;100699.72;4985701;28;19926;-73
2023/05/10 05:06:24;;;;;;;;;;;;;;;11.48;31.80;100700.78;4989460;28;19925;-73
2023/05/10 05:08:50;;;;;;;;;;;;;;;11.57;31.82;100698.41;5005024;28;20324;-73
2023/05/10 05:11:16;;;;;;;;;;;;;;;11.75;31.48;100689.81;4987496;28;19933;-73
2023/05/10 05:13:42;;;;;;;;;;;;;;;11.86;31.50;100696.19;4988871;28;20349;-73
2023/05/10 05:16:10;;;;;;;;;;;;;;;12.08;31.16;100688.97;4988249;28;19953;-74
2023/05/10 05:18:36;;;;;;;;;;;;;;;12.15;30.83;100687.66;4987234;28;19925;-73
2023/05/10 05:21:02;;;;;;;;;;;;;;;12.09;30.79;100677.75;4986134;28;19925;-73
2023/05/10 05:23:28;;;;;;;;;;;;;;;12.08;30.84;100680.75;4987737;28;19996;-72
2023/05/10 05:25:54;;;;;;;;;;;;;;;12.11;30.77;100681.06;4985665;28;19925;-73
2023/05/10 05:28:20;;;;;;;;;;;;;;;12.13;30.42;100678.88;4986716;28;20376;-73
2023/05/10 05:30:46;;;;;;;;;;;;;;;12.26;30.25;100674.84;4981937;28;20020;-73
2023/05/10 05:33:16;;;;;;;;;;;;;;;12.43;30.00;100671.94;4985464;28;20318;-75
2023/05/10 05:35:47;;;;;;;;;;;;;;;12.62;30.03;100675.03;4966923;28;20336;-73
2023/05/10 05:38:13;;;;;;;;;;;;;;;12.83;29.81;100675.13;4964152;28;19957;-75
2023/05/10 05:40:39;;;;;;;;;;;;;;;12.87;29.92;100679.00;4965702;28;20420;-75
2023/05/10 05:43:05;;;;;;;;;;;;;;;12.86;29.72;100665.53;4981342;28;19925;-75
2023/05/10 05:45:31;;;;;;;;;;;;;;;12.93;29.54;100671.59;4980358;28;19925;-75
2023/05/10 05:47:58;;;;;;;;;;;;;;;12.92;29.16;100661.72;4981679;28;19929;-73
2023/05/10 05:50:26;;;;;;;;;;;;;;;13.02;29.22;100669.97;4981260;28;19932;-73
2023/05/10 05:52:52;;;;;;;;;;;;;;;13.07;28.71;100666.41;4985952;28;19926;-73
2023/05/10 05:55:18;;;;;;;;;;;;;;;13.22;28.62;100660.16;4987155;28;19925;-73
2023/05/10 05:57:45;;;;;;;;;;;;;;;13.41;28.54;100662.38;4986399;28;20377;-73
2023/05/10 06:00:11;;;;;;;;;;;;;;;13.64;28.19;100666.53;4985247;28;20305;-75
2023/05/10 06:02:40;;;;;;;;;;;;;;;13.77;27.78;100656.91;4989116;28;19960;-75
2023/05/10 06:05:07;;;;;;;;;;;;;;;13.82;27.63;100656.94;5003657;28;20397;-76
2023/05/10 06:07:34;;;;;;;;;;;;;;;13.87;27.46;100662.41;4989412;28;20031;-76
2023/05/10 06:10:01;;;;;;;;;;;;;;;13.97;27.13;100656.09;4972762;28;20024;-75
2023/05/10 06:12:31;;;;;;;;;;;;;;;14.09;27.33;100655.78;4977159;28;20404;-74
2023/05/10 06:14:57;;;;;;;;;;;;;;;14.29;27.16;100660.41;4990041;28;20480;-74
2023/05/10 06:17:24;;;;;;;;;;;;;;;14.38;27.00;100657.09;5026120;23;19932;-76
2023/05/10 06:19:50;;;;;;;;;;;;;;;14.35;26.72;100652.13;4993196;28;19926;-73
2023/05/10 06:22:16;;;;;;;;;;;;;;;14.35;26.91;100647.47;4992202;28;19972;-74
2023/05/10 06:24:43;;;;;;;;;;;;;;;14.52;26.62;100655.41;4989828;28;19925;-74
2023/05/10 06:27:09;;;;;;;;;;;;;;;14.55;25.88;100651.25;4990335;28;20028;-74
2023/05/10 06:29:35;;;;;;;;;;;;;;;14.50;25.86;100651.28;4990431;28;20024;-74
2023/05/10 06:32:01;;;;;;;;;;;;;;;14.59;25.77;100657.84;4991985;28;20384;-76
2023/05/10 06:34:30;;;;;;;;;;;;;;;14.69;25.86;100646.00;5005125;28;19972;-76
2023/05/10 06:36:56;;;;;;;;;;;;;;;14.92;25.54;100647.28;4972998;28;19926;-74
2023/05/10 06:39:22;;;;;;;;;;;;;;;15.01;24.56;100653.84;4988730;28;19972;-74
2023/05/10 06:41:49;;;;;;;;;;;;;;;14.72;24.38;100648.22;4989605;28;19926;-74
2023/05/10 06:44:15;;;;;;;;;;;;;;;14.64;24.90;100654.25;4987858;28;20385;-74
2023/05/10 06:46:41;;;;;;;;;;;;;;;14.73;24.43;100642.41;4955827;28;19925;-74
2023/05/10 06:49:07;;;;;;;;;;;;;;;15.03;24.25;100639.78;4982048;28;20060;-74
2023/05/10 06:51:33;;;;;;;;;;;;;;;15.16;23.69;100643.84;4985794;28;19964;-74
2023/05/10 06:53:59;;;;;;;;;;;;;;;15.28;23.76;100640.72;4989253;28;19953;-74
2023/05/10 06:56:25;;;;;;;;;;;;;;;15.57;23.63;100639.94;4996504;28;19979;-74
2023/05/10 06:58:53;;;;;;;;;;;;;;;15.95;23.62;100637.47;4987041;28;19925;-74
2023/05/10 07:01:19;;;;;;;;;;;;;;;16.10;22.91;100635.66;4988839;28;20405;-74
2023/05/10 07:03:45;;;;;;;;;;;;;;;15.94;23.34;100640.50;4956740;28;19968;-74
2023/05/10 07:06:12;;;;;;;;;;;;;;;15.99;23.60;100638.50;4995806;28;19926;-74
2023/05/10 07:08:37;;;;;;;;;;;;;;;16.20;23.74;100632.78;4988143;28;20413;-74
2023/05/10 07:11:04;;;;;;;;;;;;;;;16.36;23.62;100632.59;4987440;28;19925;-76
2023/05/10 07:13:31;;;;;;;;;;;;;;;16.68;22.97;100631.94;4974130;28;19925;-74
2023/05/10 07:15:58;;;;;;;;;;;;;;;16.66;23.25;100630.59;4989440;28;20379;-74
2023/05/10 07:18:24;;;;;;;;;;;;;;;16.64;23.16;100628.16;5003839;28;20455;-76
2023/05/10 07:20:50;;;;;;;;;;;;;;;16.41;23.15;100627.84;4991336;28;20028;-76
2023/05/10 07:23:17;;;;;;;;;;;;;;;16.35;23.40;100620.75;4987989;28;19937;-76
2023/05/10 07:25:44;;;;;;;;;;;;;;;16.37;23.10;100625.97;4992346;28;19929;-75
2023/05/10 07:28:10;;;;;;;;;;;;;;;16.42;23.07;100623.16;4987743;28;20030;-76
2023/05/10 07:30:36;;;;;;;;;;;;;;;16.42;22.48;100621.22;4988000;28;19926;-76
2023/05/10 07:33:03;;;;;;;;;;;;;;;16.45;22.61;100622.56;4985314;28;19949;-76
2023/05/10 07:35:29;;;;;;;;;;;;;;;16.68;22.23;100625.59;4987214;28;19926;-76
2023/05/10 07:37:55;;;;;;;;;;;;;;;16.78;22.37;100621.88;4987558;28;19926;-76
2023/05/10 07:40:21;;;;;;;;;;;;;;;16.78;21.94;100611.66;4989150;28;19926;-76
2023/05/10 07:42:47;;;;;;;;;;;;;;;16.71;21.83;100616.75;4989665;28;20443;-74
2023/05/10 07:45:13;;;;;;;;;;;;;;;16.79;22.03;100621.59;4991583;28;20024;-76
2023/05/10 07:47:39;;;;;;;;;;;;;;;16.94;21.99;100614.22;4991049;28;19932;-76
2023/05/10 07:50:07;;;;;;;;;;;;;;;17.38;21.81;100615.78;4990844;28;19930;-76
2023/05/10 07:52:33;;;;;;;;;;;;;;;17.82;20.85;100608.13;4989941;28;19951;-76
2023/05/10 07:54:59;;;;;;;;;;;;;;;18.06;20.94;100607.19;4988283;28;19976;-77
2023/05/10 07:57:25;;;;;;;;;;;;;;;18.23;20.78;100601.03;4991280;28;19925;-76
2023/05/10 07:59:51;;;;;;;;;;;;;;;18.33;20.59;100605.53;4988605;28;19929;-76
2023/05/10 08:02:17;;;;;;;;;;;;;;;18.31;20.47;100604.22;4991150;28;19949;-76
2023/05/10 08:04:42;;;;;;;;;;;;;;;18.44;20.07;100600.63;4988783;28;19948;-76
2023/05/10 08:07:10;;;;;;;;;;;;;;;18.70;19.61;100594.53;5004830;28;19952;-76
2023/05/10 08:09:36;;;;;;;;;;;;;;;19.01;19.43;100595.84;5004451;28;20084;-76
2023/05/10 08:12:04;;;;;;;;;;;;;;;19.60;18.86;100589.41;4989920;28;19969;-76
2023/05/10 08:14:31;;;;;;;;;;;;;;;20.23;18.27;100589.41;4987469;28;19930;-76
2023/05/10 08:16:56;;;;;;;;;;;;;;;20.47;17.79;100596.50;4989398;28;19925;-76
2023/05/10 08:19:23;;;;;;;;;;;;;;;20.39;18.14;100581.44;4988046;28;19926;-76
2023/05/10 08:21:48;;;;;;;;;;;;;;;;;;4991301;28;20428;-75
2023/05/10 08:24:16;;;;;;;;;;;;;;;20.25;17.90;100582.38;4988969;28;19921;-76
2023/05/10 08:26:41;;;;;;;;;;;;;;;19.90;17.94;100573.91;4988474;28;19925;-76
2023/05/10 08:29:07;;;;;;;;;;;;;;;20.21;17.31;100575.84;5004367;28;20028;-75
2023/05/10 08:31:33;;;;;;;;;;;;;;;20.91;16.76;100571.59;4988291;28;19957;-74
2023/05/10 08:34:00;;;;;;;;;;;;;;;21.46;16.20;100572.84;4988272;28;19925;-76
2023/05/10 08:36:26;;;;;;;;;;;;;;;21.75;16.10;100564.97;4988248;28;19932;-76
2023/05/10 08:38:52;;;;;;;;;;;;;;;22.03;16.01;100567.31;4989063;28;19930;-75
2023/05/10 08:41:20;;;;;;;;;;;;;;;22.48;15.50;100564.00;4988007;28;19929;-75
2023/05/10 08:43:47;;;;;;;;;;;;;;;22.62;15.47;100563.75;4984862;28;19926;-76
2023/05/10 08:46:15;;;;;;;;;;;;;;;22.54;15.58;100561.81;4986299;28;19929;-75
2023/05/10 08:48:42;;;;;;;;;;;;;;;22.44;15.62;100563.00;4985992;28;19973;-75
2023/05/10 08:51:10;;;;;;;;;;;;;;;22.52;15.55;100553.81;4989543;28;19925;-76
2023/05/10 08:53:36;;;;;;;;;;;;;;;23.31;15.09;100557.94;4987626;28;19926;-76
2023/05/10 08:56:03;;;;;;;;;;;;;;;23.76;14.29;100549.91;4989112;28;19932;-76
2023/05/10 08:58:31;;;;;;;;;;;;;;;23.31;14.63;100549.56;4988740;28;20301;-75
2023/05/10 09:00:56;;;;;;;;;;;;;;;22.76;15.40;100554.31;4987880;28;19925;-75
2023/05/10 09:03:22;;;;;;;;;;;;;;;21.53;16.28;100556.47;4990456;28;19964;-73
2023/05/10 09:05:49;;;;;;;;;;;;;;;21.92;15.92;100545.41;4987619;28;19960;-73
2023/05/10 09:08:16;;;;;;;;;;;;;;;21.35;16.28;100552.13;4991212;28;19933;-75
2023/05/10 09:10:43;;;;;;;;;;;;;;;21.11;16.32;100543.16;4988701;28;19956;-74
2023/05/10 09:13:10;;;;;;;;;;;;;;;20.51;17.15;100542.78;4988849;28;19945;-75
2023/05/10 09:15:37;;;;;;;;;;;;;;;19.72;17.56;100536.94;4970743;28;19926;-75
2023/05/10 09:18:04;;;;;;;;;;;;;;;18.99;17.96;100530.47;4970743;28;20393;-75
2023/05/10 09:20:30;;;;;;;;;;;;;;;20.33;17.43;100530.00;4989135;28;19926;-76
2023/05/10 09:22:56;;;;;;;;;;;;;;;22.02;16.25;100524.75;4990084;28;19925;-76
2023/05/10 09:25:22;;;;;;;;;;;;;;;21.98;16.29;100522.97;4989347;28;20024;-75
2023/05/10 09:27:48;;;;;;;;;;;;;;;22.05;16.46;100526.03;4991820;28;20061;-76
2023/05/10 09:30:18;;;;;;;;;;;;;;;22.31;16.48;100520.31;4993780;28;19925;-73
2023/05/10 09:32:46;;;;;;;;;;;;;;;21.70;16.61;100524.22;4967410;28;19929;-74
2023/05/10 09:35:12;;;;;;;;;;;;;;;21.26;16.84;100518.75;4983161;28;20263;-73
2023/05/10 09:37:41;;;;;;;;;;;;;;;21.22;16.89;100509.44;4971179;28;19926;-75
2023/05/10 09:40:08;;;;;;;;;;;;;;;20.53;17.39;100520.25;4989105;28;19933;-73
2023/05/10 09:42:34;;;;;;;;;;;;;;;20.04;18.15;100509.19;4988966;28;19926;-73
2023/05/10 09:45:00;;;;;;;;;;;;;;;19.63;18.79;100513.91;4985655;28;19933;-74
2023/05/10 09:47:26;;;;;;;;;;;;;;;19.49;18.84;100508.41;4986151;28;19932;-75
2023/05/10 09:49:57;;;;;;;;;;;;;;;19.40;18.46;100505.59;4986827;28;19933;-75
2023/05/10 09:52:23;;;;;;;;;;;;;;;19.44;18.59;100503.03;4989616;28;20573;-75
2023/05/10 09:54:52;;;;;;;;;;;;;;;19.63;18.53;100497.25;4988345;28;19925;-75
2023/05/10 09:57:20;;;;;;;;;;;;;;;19.93;18.25;100495.59;5002737;28;20426;-76
2023/05/10 09:59:46;;;;;;;;;;;;;;;20.23;18.13;100500.59;4986097;28;19936;-75
2023/05/10 10:02:13;;;;;;;;;;;;;;;20.37;18.20;100490.16;5002495;28;20032;-75
2023/05/10 10:04:39;;;;;;;;;;;;;;;20.38;17.99;100491.78;4986452;28;19926;-76
2023/05/10 10:07:07;;;;;;;;;;;;;;;20.34;18.09;100479.69;4987944;28;20388;-76
2023/05/10 10:09:33;;;;;;;;;;;;;;;20.17;18.32;100483.25;4987671;28;19929;-76
2023/05/10 10:11:59;;;;;;;;;;;;;;;19.82;18.63;100481.16;5002549;28;19926;-76
2023/05/10 10:14:25;;;;;;;;;;;;;;;19.68;18.78;100472.97;4987610;28;19925;-76
2023/05/10 10:16:51;;;;;;;;;;;;;;;19.65;19.13;100476.34;4952654;28;19929;-76
2023/05/10 10:19:18;;;;;;;;;;;;;;;19.84;18.75;100472.53;4985465;28;19926;-75
2023/05/10 10:21:44;;;;;;;;;;;;;;;19.99;18.70;100474.06;4970962;28;20448;-75
2023/05/10 10:24:11;;;;;;;;;;;;;;;20.46;18.62;100473.50;4987694;28;19930;-73
2023/05/10 10:26:38;;;;;;;;;;;;;;;21.30;18.05;100469.69;4989745;28;19925;-74
2023/05/10 10:29:10;;;;;;;;;;;;;;;22.41;16.92;100465.38;4985720;28;19952;-74
2023/05/10 10:31:39;;;;;;;;;;;;;;;22.50;16.47;100469.75;4968895;28;19933;-74
2023/05/10 10:34:06;;;;;;;;;;;;;;;22.88;16.36;100467.13;4987355;28;19931;-74
2023/05/10 10:36:33;;;;;;;;;;;;;;;24.16;15.39;100461.88;4987115;28;19979;-74
2023/05/10 10:39:00;;;;;;;;;;;;;;;23.55;15.69;100464.28;4988610;28;19926;-76
2023/05/10 10:41:31;;;;;;;;;;;;;;;23.27;15.93;100453.81;4987055;28;20420;-76
2023/05/10 10:44:16;;;;;;;;;;;;;;;23.97;15.27;100463.28;4987319;28;20015;-76
2023/05/10 10:46:56;;;;;;;;;;;;;;;25.88;14.19;100452.16;4988282;28;19925;-76
2023/05/10 10:49:22;;;;;;;;;;;;;;;25.14;14.47;100451.50;4985916;28;19941;-76
2023/05/10 10:52:03;;;;;;;;;;;;;;;23.75;15.52;100451.41;4988035;28;19980;-76
2023/05/10 10:54:29;;;;;;;;;;;;;;;22.80;16.38;100455.72;4965852;28;20403;-76
2023/05/10 10:57:09;;;;;;;;;;;;;;;23.14;16.21;100450.13;4972456;28;19926;-76
2023/05/10 10:59:40;;;;;;;;;;;;;;;23.28;15.77;100441.50;4987605;28;20328;-76
2023/05/10 11:02:06;;;;;;;;;;;;;;;22.60;16.15;100440.66;4986996;28;20491;-76
2023/05/10 11:04:41;;;;;;;;;;;;;;;21.75;16.46;100436.97;4988801;28;20016;-76
2023/05/10 11:07:16;;;;;;;;;;;;;;;21.08;17.16;100434.56;4989072;28;20435;-76
2023/05/10 11:09:42;;;;;;;;;;;;;;;20.86;17.58;100446.72;4989350;28;19933;-76
2023/05/10 11:12:08;;;;;;;;;;;;;;;20.86;17.83;100433.66;4991768;28;19926;-76
2023/05/10 11:14:34;;;;;;;;;;;;;;;20.95;18.01;100431.66;4991000;28;20021;-76
2023/05/10 11:17:21;;;;;;;;;;;;;;;20.92;17.77;100423.97;4994131;28;19965;-76
2023/05/10 11:20:02;;;;;;;;;;;;;;;20.51;18.41;100436.41;4992890;28;19932;-76
2023/05/10 11:22:48;;;;;;;;;;;;;;;20.09;18.77;100428.53;4992544;28;19936;-76
2023/05/10 11:25:14;;;;;;;;;;;;;;;20.00;18.86;100425.75;4974304;28;20393;-76
2023/05/10 11:27:40;;;;;;;;;;;;;;;19.80;19.20;100427.97;4993069;28;19932;-76
2023/05/10 11:30:07;;;;;;;;;;;;;;;19.72;19.32;100422.41;4992040;28;19933;-76
2023/05/10 11:32:36;;;;;;;;;;;;;;;19.63;19.37;100416.81;5006029;28;19925;-74
2023/05/10 11:35:06;;;;;;;;;;;;;;;19.55;19.15;100410.91;4989030;28;19925;-74
2023/05/10 11:37:34;;;;;;;;;;;;;;;19.44;19.04;100411.53;4990124;28;19937;-74
2023/05/10 11:39:59;;;;;;;;;;;;;;;19.54;19.24;100408.47;4990099;28;19930;-76
2023/05/10 11:42:27;;;;;;;;;;;;;;;19.67;19.01;100409.47;4990093;28;19972;-76
2023/05/10 11:44:53;;;;;;;;;;;;;;;19.74;19.00;100409.81;4987886;28;19925;-76
2023/05/10 11:47:19;;;;;;;;;;;;;;;19.74;18.92;100406.25;4989734;28;20407;-76
2023/05/10 11:49:48;;;;;;;;;;;;;;;19.83;18.90;100399.56;4989087;28;19933;-76
2023/05/10 11:52:14;;;;;;;;;;;;;;;19.88;18.61;100397.78;4990422;28;19926;-74
2023/05/10 11:54:44;;;;;;;;;;;;;;;19.64;19.02;100401.81;4990577;28;20032;-74
2023/05/10 11:57:10;;;;;;;;;;;;;;;19.46;19.71;100398.97;5006447;28;19948;-76
2023/05/10 11:59:36;;;;;;;;;;;;;;;19.21;19.82;100393.00;4992333;28;19926;-74
2023/05/10 12:02:03;;;;;;;;;;;;;;;19.01;20.21;100396.34;4991730;28;19996;-76
2023/05/10 12:04:29;;;;;;;;;;;;;;;18.86;20.39;100392.78;4991514;28;20023;-76
2023/05/10 12:06:57;;;;;;;;;;;;;;;18.79;20.14;100390.47;4988049;28;19926;-76
2023/05/10 12:09:23;;;;;;;;;;;;;;;18.87;20.02;100382.50;5006406;28;20353;-76
2023/05/10 12:11:49;;;;;;;;;;;;;;;18.74;20.07;100379.53;4990782;28;19929;-76
2023/05/10 12:14:15;;;;;;;;;;;;;;;18.80;19.75;100381.03;4989160;28;20020;-76
2023/05/10 12:16:43;;;;;;;;;;;;;;;18.84;19.92;100387.56;4991496;28;20478;-78
2023/05/10 12:19:08;;;;;;;;;;;;;;;18.76;20.05;100393.03;4990202;28;19972;-76
2023/05/10 12:21:34;;;;;;;;;;;;;;;18.63;20.00;100381.72;4990609;28;19953;-76
2023/05/10 12:24:03;;;;;;;;;;;;;;;18.60;20.19;100374.03;4991281;28;19980;-76
2023/05/10 12:26:29;;;;;;;;;;;;;;;18.79;20.33;100375.78;4989861;28;19961;-76
2023/05/10 12:29:11;;;;;;;;;;;;;;;19.07;19.84;100370.94;4989398;28;19925;-76
2023/05/10 12:31:48;;;;;;;;;;;;;;;19.25;19.95;100365.47;4990113;28;20408;-76
2023/05/10 12:34:22;;;;;;;;;;;;;;;19.22;20.15;100374.44;4989840;28;19926;-76
2023/05/10 12:36:50;;;;;;;;;;;;;;;18.95;20.67;100376.22;4989944;28;19972;-76
2023/05/10 12:39:17;;;;;;;;;;;;;;;18.82;20.58;100366.88;5004928;28;19925;-74
2023/05/10 12:41:43;;;;;;;;;;;;;;;18.68;20.80;100364.16;4988783;28;19925;-74